Stillwater, ME

5:06 AM EDT on April 25, 2015 (GMT -0400)
RAWS | | Change Station
CLOSE
Current Station
Personal Weather Station
Location: Milford, ME
Elevation: 49 ft
Nearby Weather Stations
Active Advisory: Flood Warning

Elev 49 ft 44.95 °N, 68.61 °W | Updated 35 minutes ago

Partly Cloudy
Partly Cloudy
33 °F
Feels Like 33 °F
N
0
Wind Variable Wind from North
Gusts 0.0 mph

Today
High -- | Low -- °F
--% Chance of Precip.
Yesterday
High -- | Low -- °F
Precip. -- in
5:33 AM 7:32 PM
Waxing Crescent, 44% visible
Pressure 29.64 in
Visibility 10.0 miles
Clouds Few 5000 ft
Scattered Clouds 7000 ft
Windchill 33 °F
Dew Point 28 °F
Humidity 80%
Rainfall in
Snow Depth Not available.
UV 0 out of 12
Pollen 4.30 out of 12
Air Quality Not available.
Flu Activity Regional
METAR KBGR 250753Z 28005KT 10SM FEW050 SCT070 01/M03 A2963 RMK AO2 SLP035 T00061033

More Conditions Fewer Conditions

Pressure 29.64 in
Visibility 10.0 miles
Clouds Few 5000 ft
Scattered Clouds 7000 ft
Windchill 33 °F
Dew Point 28 °F
Humidity 80%
Rainfall in
Snow Depth Not available.
UV 0 out of 12
Pollen 4.30 out of 12
Air Quality Not available.
Flu Activity Regional
METAR KBGR 250753Z 28005KT 10SM FEW050 SCT070 01/M03 A2963 RMK AO2 SLP035 T00061033

More Conditions Fewer Conditions

10-Day Weather Forecast

Almanac

Astronomy

Apr. 25, 2015 Rise Set
Actual Time
Civil Twilight
Nautical Twilight
Astronomical Twilight
Moon
Length of Visible Light
Length of Day
Tomorrow will be .
, % of the Moon is Illuminated

Today's Extremes

State Highs State Lows

Community

WunderPhotos

Upload Photos

1,816,631 photos uploaded!

WunderBlogs® & News

Nearby

Air Quality

  Air Quality AQ Index Pollutant
Not available.

Snow Depth

Station Depth Elevation

Earthquake Activity

City Distance Mag. Time & Date
Minimum magnitude displayed is 2.5.

Coastal Water Temperatures

Place Temperature

Stations

Nearby Weather Stations

Station Location Temp. Windchill Dew Point Humidity Wind Precip. Elev Updated Type
                   
Flood Warning
Statement as of 10:35 PM EDT on April 24, 2015

The Flood Warning continues for
the Mattawamkeag River above Mattawamkeag
* until further notice... or until the warning is cancelled.
* At 22:15 PM Friday the stage was 14.2 feet
* minor flooding is occurring and minor flooding is forecast.
* Flood stage is 13.5 feet.
* Forecast... the river will continue rising to near 14.4 feet by
Saturday evening.
* Impacts... at 13.5 feet, minor lowland flooding occurs. Flooding may
affect the Bancroft Road between Wytopitlock and Danforth... however
there have not been any reports of flooding at this time.


Lat... Lon 4557 6838 4560 6819 4572 6808 4566 6794
      4551 6810 4546 6835